sensor_id;sensor_type;location;lat;lon;timestamp;temperature;humidity
9802;DHT22;4940;50.900;4.672;2022-07-29T00:01:51;20.70;89.80
9802;DHT22;4940;50.900;4.672;2022-07-29T00:04:19;20.70;90.00
9802;DHT22;4940;50.900;4.672;2022-07-29T00:06:46;20.70;90.20
9802;DHT22;4940;50.900;4.672;2022-07-29T00:09:14;20.70;90.50
9802;DHT22;4940;50.900;4.672;2022-07-29T00:11:41;20.60;90.60
9802;DHT22;4940;50.900;4.672;2022-07-29T00:14:08;20.60;90.60
9802;DHT22;4940;50.900;4.672;2022-07-29T00:16:37;20.60;90.80
9802;DHT22;4940;50.900;4.672;2022-07-29T00:19:04;20.50;90.50
9802;DHT22;4940;50.900;4.672;2022-07-29T00:21:32;20.50;90.90
9802;DHT22;4940;50.900;4.672;2022-07-29T00:23:59;20.50;90.60
9802;DHT22;4940;50.900;4.672;2022-07-29T00:26:26;20.40;90.70
9802;DHT22;4940;50.900;4.672;2022-07-29T00:28:57;20.40;90.70
9802;DHT22;4940;50.900;4.672;2022-07-29T00:31:24;20.40;91.00
9802;DHT22;4940;50.900;4.672;2022-07-29T00:33:53;20.30;90.80
9802;DHT22;4940;50.900;4.672;2022-07-29T00:38:47;20.30;91.10
9802;DHT22;4940;50.900;4.672;2022-07-29T00:41:15;20.30;91.10
9802;DHT22;4940;50.900;4.672;2022-07-29T00:43:42;20.20;91.20
9802;DHT22;4940;50.900;4.672;2022-07-29T00:46:10;20.20;91.50
9802;DHT22;4940;50.900;4.672;2022-07-29T00:48:37;20.20;91.50
9802;DHT22;4940;50.900;4.672;2022-07-29T00:51:06;20.20;91.60
9802;DHT22;4940;50.900;4.672;2022-07-29T00:53:36;20.10;91.30
9802;DHT22;4940;50.900;4.672;2022-07-29T00:56:04;20.10;91.70
9802;DHT22;4940;50.900;4.672;2022-07-29T00:58:31;20.10;91.50
9802;DHT22;4940;50.900;4.672;2022-07-29T01:00:59;20.00;91.50
9802;DHT22;4940;50.900;4.672;2022-07-29T01:03:26;20.00;91.80
9802;DHT22;4940;50.900;4.672;2022-07-29T01:05:54;20.00;91.80
9802;DHT22;4940;50.900;4.672;2022-07-29T01:08:23;20.00;91.60
9802;DHT22;4940;50.900;4.672;2022-07-29T01:10:51;20.00;91.90
9802;DHT22;4940;50.900;4.672;2022-07-29T01:13:19;19.90;91.50
9802;DHT22;4940;50.900;4.672;2022-07-29T01:15:51;19.90;91.60
9802;DHT22;4940;50.900;4.672;2022-07-29T01:18:24;19.80;91.70
9802;DHT22;4940;50.900;4.672;2022-07-29T01:21:06;19.80;91.80
9802;DHT22;4940;50.900;4.672;2022-07-29T01:23:52;19.80;92.20
9802;DHT22;4940;50.900;4.672;2022-07-29T01:26:33;19.70;91.80
9802;DHT22;4940;50.900;4.672;2022-07-29T01:29:05;19.70;91.90
9802;DHT22;4940;50.900;4.672;2022-07-29T01:31:38;19.70;92.50
9802;DHT22;4940;50.900;4.672;2022-07-29T01:34:17;19.70;91.80
9802;DHT22;4940;50.900;4.672;2022-07-29T01:36:51;19.60;92.40
9802;DHT22;4940;50.900;4.672;2022-07-29T01:39:27;19.60;92.20
9802;DHT22;4940;50.900;4.672;2022-07-29T01:42:01;19.60;92.30
9802;DHT22;4940;50.900;4.672;2022-07-29T01:44:35;19.50;92.30
9802;DHT22;4940;50.900;4.672;2022-07-29T01:47:10;19.50;92.40
9802;DHT22;4940;50.900;4.672;2022-07-29T01:49:43;19.30;92.20
9802;DHT22;4940;50.900;4.672;2022-07-29T01:52:18;19.30;92.50
9802;DHT22;4940;50.900;4.672;2022-07-29T01:54:50;19.20;92.40
9802;DHT22;4940;50.900;4.672;2022-07-29T01:57:21;19.20;92.70
9802;DHT22;4940;50.900;4.672;2022-07-29T01:59:51;19.10;92.50
9802;DHT22;4940;50.900;4.672;2022-07-29T02:02:21;19.10;92.80
9802;DHT22;4940;50.900;4.672;2022-07-29T02:04:49;19.00;92.70
9802;DHT22;4940;50.900;4.672;2022-07-29T02:07:20;19.00;93.10
9802;DHT22;4940;50.900;4.672;2022-07-29T02:09:49;18.90;93.00
9802;DHT22;4940;50.900;4.672;2022-07-29T02:12:18;18.90;93.30
9802;DHT22;4940;50.900;4.672;2022-07-29T02:14:48;18.80;93.40
9802;DHT22;4940;50.900;4.672;2022-07-29T02:17:22;18.70;93.30
9802;DHT22;4940;50.900;4.672;2022-07-29T02:19:52;18.70;93.60
9802;DHT22;4940;50.900;4.672;2022-07-29T02:22:20;18.70;93.50
9802;DHT22;4940;50.900;4.672;2022-07-29T02:24:49;18.60;93.70
9802;DHT22;4940;50.900;4.672;2022-07-29T02:27:18;18.50;93.80
9802;DHT22;4940;50.900;4.672;2022-07-29T02:29:46;18.50;94.10
9802;DHT22;4940;50.900;4.672;2022-07-29T02:32:17;18.50;94.30
9802;DHT22;4940;50.900;4.672;2022-07-29T02:34:46;18.40;94.00
9802;DHT22;4940;50.900;4.672;2022-07-29T02:37:16;18.40;94.10
9802;DHT22;4940;50.900;4.672;2022-07-29T02:39:45;18.40;94.50
9802;DHT22;4940;50.900;4.672;2022-07-29T02:42:16;18.50;94.60
9802;DHT22;4940;50.900;4.672;2022-07-29T02:44:44;18.40;94.60
9802;DHT22;4940;50.900;4.672;2022-07-29T02:47:16;18.40;94.70
9802;DHT22;4940;50.900;4.672;2022-07-29T02:49:51;18.40;94.50
9802;DHT22;4940;50.900;4.672;2022-07-29T02:52:23;18.40;94.60
9802;DHT22;4940;50.900;4.672;2022-07-29T02:54:55;18.30;94.50
9802;DHT22;4940;50.900;4.672;2022-07-29T02:57:30;18.30;94.60
9802;DHT22;4940;50.900;4.672;2022-07-29T03:00:02;18.20;94.60
9802;DHT22;4940;50.900;4.672;2022-07-29T03:02:34;18.20;94.90
9802;DHT22;4940;50.900;4.672;2022-07-29T03:05:04;18.10;94.70
9802;DHT22;4940;50.900;4.672;2022-07-29T03:07:34;18.10;94.80
9802;DHT22;4940;50.900;4.672;2022-07-29T03:10:02;18.20;94.90
9802;DHT22;4940;50.900;4.672;2022-07-29T03:12:30;18.00;95.20
9802;DHT22;4940;50.900;4.672;2022-07-29T03:14:59;17.90;95.30
9802;DHT22;4940;50.900;4.672;2022-07-29T03:17:27;17.80;95.10
9802;DHT22;4940;50.900;4.672;2022-07-29T03:19:55;17.80;95.50
9802;DHT22;4940;50.900;4.672;2022-07-29T03:22:24;17.60;95.30
9802;DHT22;4940;50.900;4.672;2022-07-29T03:24:51;17.60;95.40
9802;DHT22;4940;50.900;4.672;2022-07-29T03:27:19;17.60;95.40
9802;DHT22;4940;50.900;4.672;2022-07-29T03:32:14;17.50;95.60
9802;DHT22;4940;50.900;4.672;2022-07-29T03:34:41;17.40;96.00
9802;DHT22;4940;50.900;4.672;2022-07-29T03:37:08;17.30;96.20
9802;DHT22;4940;50.900;4.672;2022-07-29T03:39:40;17.30;96.40
9802;DHT22;4940;50.900;4.672;2022-07-29T03:42:11;17.20;96.40
9802;DHT22;4940;50.900;4.672;2022-07-29T03:44:39;17.20;96.50
9802;DHT22;4940;50.900;4.672;2022-07-29T03:47:09;17.10;96.50
9802;DHT22;4940;50.900;4.672;2022-07-29T03:49:37;17.10;96.80
9802;DHT22;4940;50.900;4.672;2022-07-29T03:52:05;17.00;96.60
9802;DHT22;4940;50.900;4.672;2022-07-29T03:54:32;17.00;96.80
9802;DHT22;4940;50.900;4.672;2022-07-29T03:57:02;17.00;97.10
9802;DHT22;4940;50.900;4.672;2022-07-29T03:59:31;16.90;97.00
9802;DHT22;4940;50.900;4.672;2022-07-29T04:02:00;16.90;97.10
9802;DHT22;4940;50.900;4.672;2022-07-29T04:04:31;16.90;97.40
9802;DHT22;4940;50.900;4.672;2022-07-29T04:06:59;16.80;97.50
9802;DHT22;4940;50.900;4.672;2022-07-29T04:09:26;16.80;97.30
9802;DHT22;4940;50.900;4.672;2022-07-29T04:11:53;16.70;97.60
9802;DHT22;4940;50.900;4.672;2022-07-29T04:14:22;16.70;97.80
9802;DHT22;4940;50.900;4.672;2022-07-29T04:16:49;16.70;97.80
9802;DHT22;4940;50.900;4.672;2022-07-29T04:19:16;16.60;98.10
9802;DHT22;4940;50.900;4.672;2022-07-29T04:21:43;16.70;98.30
9802;DHT22;4940;50.900;4.672;2022-07-29T04:24:11;16.60;98.20
9802;DHT22;4940;50.900;4.672;2022-07-29T04:26:38;16.60;98.20
9802;DHT22;4940;50.900;4.672;2022-07-29T04:29:05;16.50;98.30
9802;DHT22;4940;50.900;4.672;2022-07-29T04:31:34;16.50;98.60
9802;DHT22;4940;50.900;4.672;2022-07-29T04:34:01;16.50;98.60
9802;DHT22;4940;50.900;4.672;2022-07-29T04:36:29;16.50;98.70
9802;DHT22;4940;50.900;4.672;2022-07-29T04:38:56;16.50;99.10
9802;DHT22;4940;50.900;4.672;2022-07-29T04:41:23;16.50;99.30
9802;DHT22;4940;50.900;4.672;2022-07-29T04:46:18;16.50;99.30
9802;DHT22;4940;50.900;4.672;2022-07-29T04:48:47;16.50;99.90
9802;DHT22;4940;50.900;4.672;2022-07-29T04:51:15;16.50;99.60
9802;DHT22;4940;50.900;4.672;2022-07-29T04:53:42;16.60;99.80
9802;DHT22;4940;50.900;4.672;2022-07-29T04:56:10;16.60;99.90
9802;DHT22;4940;50.900;4.672;2022-07-29T04:58:37;16.60;99.90
9802;DHT22;4940;50.900;4.672;2022-07-29T05:01:04;16.40;99.90
9802;DHT22;4940;50.900;4.672;2022-07-29T05:03:31;16.60;99.90
9802;DHT22;4940;50.900;4.672;2022-07-29T05:06:00;16.60;99.90
9802;DHT22;4940;50.900;4.672;2022-07-29T05:08:27;16.70;99.90
9802;DHT22;4940;50.900;4.672;2022-07-29T05:10:54;16.80;99.90
9802;DHT22;4940;50.900;4.672;2022-07-29T05:13:22;16.90;99.90
9802;DHT22;4940;50.900;4.672;2022-07-29T05:15:49;16.90;99.90
9802;DHT22;4940;50.900;4.672;2022-07-29T05:18:16;17.00;99.90
9802;DHT22;4940;50.900;4.672;2022-07-29T05:20:44;17.10;99.90
9802;DHT22;4940;50.900;4.672;2022-07-29T05:23:12;17.20;99.90
9802;DHT22;4940;50.900;4.672;2022-07-29T05:25:40;17.30;99.90
9802;DHT22;4940;50.900;4.672;2022-07-29T05:28:07;17.20;99.90
9802;DHT22;4940;50.900;4.672;2022-07-29T05:30:35;17.40;99.90
9802;DHT22;4940;50.900;4.672;2022-07-29T05:33:02;17.40;99.90
9802;DHT22;4940;50.900;4.672;2022-07-29T05:35:29;17.50;99.90
9802;DHT22;4940;50.900;4.672;2022-07-29T05:37:56;17.50;99.90
9802;DHT22;4940;50.900;4.672;2022-07-29T05:40:25;17.70;99.90
9802;DHT22;4940;50.900;4.672;2022-07-29T05:42:52;18.10;99.90
9802;DHT22;4940;50.900;4.672;2022-07-29T05:45:19;18.10;99.90
9802;DHT22;4940;50.900;4.672;2022-07-29T05:47:46;18.50;99.90
9802;DHT22;4940;50.900;4.672;2022-07-29T05:50:13;19.10;99.90
9802;DHT22;4940;50.900;4.672;2022-07-29T05:52:41;19.70;99.90
9802;DHT22;4940;50.900;4.672;2022-07-29T05:55:08;20.30;99.90
9802;DHT22;4940;50.900;4.672;2022-07-29T05:57:37;20.10;99.90
9802;DHT22;4940;50.900;4.672;2022-07-29T06:00:05;21.70;99.50
9802;DHT22;4940;50.900;4.672;2022-07-29T06:02:33;22.30;98.40
9802;DHT22;4940;50.900;4.672;2022-07-29T06:05:00;23.00;97.40
9802;DHT22;4940;50.900;4.672;2022-07-29T06:07:27;23.50;96.10
9802;DHT22;4940;50.900;4.672;2022-07-29T06:09:55;24.10;95.30
9802;DHT22;4940;50.900;4.672;2022-07-29T06:12:22;24.60;94.20
9802;DHT22;4940;50.900;4.672;2022-07-29T06:14:51;25.30;92.30
9802;DHT22;4940;50.900;4.672;2022-07-29T06:17:18;25.30;92.50
9802;DHT22;4940;50.900;4.672;2022-07-29T06:19:45;25.60;91.70
9802;DHT22;4940;50.900;4.672;2022-07-29T06:22:15;25.80;91.20
9802;DHT22;4940;50.900;4.672;2022-07-29T06:24:43;26.10;90.40
9802;DHT22;4940;50.900;4.672;2022-07-29T06:27:10;26.40;90.10
9802;DHT22;4940;50.900;4.672;2022-07-29T06:29:38;26.80;90.00
9802;DHT22;4940;50.900;4.672;2022-07-29T06:32:07;27.00;89.60
9802;DHT22;4940;50.900;4.672;2022-07-29T06:34:34;27.50;88.20
9802;DHT22;4940;50.900;4.672;2022-07-29T06:37:05;27.90;87.10
9802;DHT22;4940;50.900;4.672;2022-07-29T06:39:34;28.60;85.00
9802;DHT22;4940;50.900;4.672;2022-07-29T06:42:01;29.00;83.80
9802;DHT22;4940;50.900;4.672;2022-07-29T06:44:29;29.30;81.70
9802;DHT22;4940;50.900;4.672;2022-07-29T06:46:56;29.50;81.20
9802;DHT22;4940;50.900;4.672;2022-07-29T06:49:25;29.40;80.60
9802;DHT22;4940;50.900;4.672;2022-07-29T06:51:53;29.80;79.90
9802;DHT22;4940;50.900;4.672;2022-07-29T06:54:20;29.80;79.40
9802;DHT22;4940;50.900;4.672;2022-07-29T06:56:48;30.10;77.80
9802;DHT22;4940;50.900;4.672;2022-07-29T06:59:15;30.10;77.70
9802;DHT22;4940;50.900;4.672;2022-07-29T07:01:43;30.10;77.70
9802;DHT22;4940;50.900;4.672;2022-07-29T07:04:10;30.30;77.40
9802;DHT22;4940;50.900;4.672;2022-07-29T07:06:40;30.50;76.80
9802;DHT22;4940;50.900;4.672;2022-07-29T07:09:07;30.90;75.90
9802;DHT22;4940;50.900;4.672;2022-07-29T07:11:35;31.30;75.60
9802;DHT22;4940;50.900;4.672;2022-07-29T07:14:02;31.30;75.40
9802;DHT22;4940;50.900;4.672;2022-07-29T07:16:29;31.50;75.10
9802;DHT22;4940;50.900;4.672;2022-07-29T07:19:00;33.70;74.70
9802;DHT22;4940;50.900;4.672;2022-07-29T07:21:46;32.40;71.20
9802;DHT22;4940;50.900;4.672;2022-07-29T07:24:13;32.50;71.50
9802;DHT22;4940;50.900;4.672;2022-07-29T07:26:41;32.90;70.70
9802;DHT22;4940;50.900;4.672;2022-07-29T07:29:09;32.80;70.40
9802;DHT22;4940;50.900;4.672;2022-07-29T07:31:36;33.10;71.20
9802;DHT22;4940;50.900;4.672;2022-07-29T07:34:03;33.40;69.60
9802;DHT22;4940;50.900;4.672;2022-07-29T07:36:31;33.50;70.70
9802;DHT22;4940;50.900;4.672;2022-07-29T07:38:59;33.60;68.90
9802;DHT22;4940;50.900;4.672;2022-07-29T07:41:26;33.70;68.60
9802;DHT22;4940;50.900;4.672;2022-07-29T07:43:54;33.90;68.90
9802;DHT22;4940;50.900;4.672;2022-07-29T07:46:21;34.20;68.30
9802;DHT22;4940;50.900;4.672;2022-07-29T07:48:48;34.10;68.20
9802;DHT22;4940;50.900;4.672;2022-07-29T07:53:43;34.70;66.90
9802;DHT22;4940;50.900;4.672;2022-07-29T07:56:12;34.70;66.50
9802;DHT22;4940;50.900;4.672;2022-07-29T07:58:39;34.90;66.10
9802;DHT22;4940;50.900;4.672;2022-07-29T08:01:07;35.10;66.20
9802;DHT22;4940;50.900;4.672;2022-07-29T08:03:35;35.30;66.10
9802;DHT22;4940;50.900;4.672;2022-07-29T08:06:02;35.40;65.80
9802;DHT22;4940;50.900;4.672;2022-07-29T08:08:30;35.50;65.00
9802;DHT22;4940;50.900;4.672;2022-07-29T08:10:57;35.70;64.50
9802;DHT22;4940;50.900;4.672;2022-07-29T08:13:26;36.10;63.70
9802;DHT22;4940;50.900;4.672;2022-07-29T08:15:56;36.20;63.60
9802;DHT22;4940;50.900;4.672;2022-07-29T08:18:28;36.30;63.00
9802;DHT22;4940;50.900;4.672;2022-07-29T08:20:56;36.40;63.70
9802;DHT22;4940;50.900;4.672;2022-07-29T08:23:23;36.60;63.00
9802;DHT22;4940;50.900;4.672;2022-07-29T08:25:52;36.90;61.30
9802;DHT22;4940;50.900;4.672;2022-07-29T08:28:19;37.00;61.70
9802;DHT22;4940;50.900;4.672;2022-07-29T08:30:48;37.00;61.30
9802;DHT22;4940;50.900;4.672;2022-07-29T08:33:15;37.20;61.50
9802;DHT22;4940;50.900;4.672;2022-07-29T08:35:43;37.30;60.80
9802;DHT22;4940;50.900;4.672;2022-07-29T08:38:11;37.30;61.20
9802;DHT22;4940;50.900;4.672;2022-07-29T08:40:39;37.50;60.80
9802;DHT22;4940;50.900;4.672;2022-07-29T08:43:07;37.60;60.40
9802;DHT22;4940;50.900;4.672;2022-07-29T08:45:42;37.60;60.00
9802;DHT22;4940;50.900;4.672;2022-07-29T08:48:11;37.70;59.60
9802;DHT22;4940;50.900;4.672;2022-07-29T08:50:40;37.70;59.50
9802;DHT22;4940;50.900;4.672;2022-07-29T08:53:10;37.70;59.50
9802;DHT22;4940;50.900;4.672;2022-07-29T08:55:39;37.80;59.40
9802;DHT22;4940;50.900;4.672;2022-07-29T08:58:07;37.50;58.60
9802;DHT22;4940;50.900;4.672;2022-07-29T09:00:36;37.50;58.90
9802;DHT22;4940;50.900;4.672;2022-07-29T09:03:05;37.50;58.90
9802;DHT22;4940;50.900;4.672;2022-07-29T09:05:34;37.50;59.70
9802;DHT22;4940;50.900;4.672;2022-07-29T09:08:02;37.60;59.40
9802;DHT22;4940;50.900;4.672;2022-07-29T09:10:29;37.80;59.10
9802;DHT22;4940;50.900;4.672;2022-07-29T09:12:57;38.00;59.00
9802;DHT22;4940;50.900;4.672;2022-07-29T09:15:24;38.20;58.40
9802;DHT22;4940;50.900;4.672;2022-07-29T09:17:51;38.30;58.50
9802;DHT22;4940;50.900;4.672;2022-07-29T09:20:20;38.40;59.10
9802;DHT22;4940;50.900;4.672;2022-07-29T09:22:50;38.60;58.10
9802;DHT22;4940;50.900;4.672;2022-07-29T09:25:32;38.60;58.00
9802;DHT22;4940;50.900;4.672;2022-07-29T09:28:06;38.60;57.60
9802;DHT22;4940;50.900;4.672;2022-07-29T09:30:34;38.60;57.80
9802;DHT22;4940;50.900;4.672;2022-07-29T09:33:02;38.70;58.10
9802;DHT22;4940;50.900;4.672;2022-07-29T09:35:30;38.90;57.90
9802;DHT22;4940;50.900;4.672;2022-07-29T09:38:10;39.10;57.00
9802;DHT22;4940;50.900;4.672;2022-07-29T09:40:37;39.20;56.90
9802;DHT22;4940;50.900;4.672;2022-07-29T09:43:10;39.20;56.10
9802;DHT22;4940;50.900;4.672;2022-07-29T09:45:38;39.20;56.10
9802;DHT22;4940;50.900;4.672;2022-07-29T09:48:13;39.20;56.50
9802;DHT22;4940;50.900;4.672;2022-07-29T09:50:43;37.80;55.40
9802;DHT22;4940;50.900;4.672;2022-07-29T09:53:12;39.20;56.40
9802;DHT22;4940;50.900;4.672;2022-07-29T09:55:56;39.10;56.10
9802;DHT22;4940;50.900;4.672;2022-07-29T09:58:23;39.10;56.20
9802;DHT22;4940;50.900;4.672;2022-07-29T10:00:52;39.00;55.00
9802;DHT22;4940;50.900;4.672;2022-07-29T10:03:21;39.10;55.50
9802;DHT22;4940;50.900;4.672;2022-07-29T10:06:04;38.90;54.70
9802;DHT22;4940;50.900;4.672;2022-07-29T10:08:33;38.90;55.00
9802;DHT22;4940;50.900;4.672;2022-07-29T10:11:09;38.70;55.60
9802;DHT22;4940;50.900;4.672;2022-07-29T10:13:38;38.70;55.90
9802;DHT22;4940;50.900;4.672;2022-07-29T10:16:06;38.70;55.90
9802;DHT22;4940;50.900;4.672;2022-07-29T10:18:34;38.70;54.80
9802;DHT22;4940;50.900;4.672;2022-07-29T10:21:01;38.80;55.40
9802;DHT22;4940;50.900;4.672;2022-07-29T10:23:30;38.90;55.30
9802;DHT22;4940;50.900;4.672;2022-07-29T10:25:59;39.00;54.50
9802;DHT22;4940;50.900;4.672;2022-07-29T10:28:26;38.70;54.40
9802;DHT22;4940;50.900;4.672;2022-07-29T10:31:00;38.70;54.60
9802;DHT22;4940;50.900;4.672;2022-07-29T10:33:39;38.50;55.10
9802;DHT22;4940;50.900;4.672;2022-07-29T10:36:27;38.30;55.10
9802;DHT22;4940;50.900;4.672;2022-07-29T10:39:04;38.30;55.20
9802;DHT22;4940;50.900;4.672;2022-07-29T10:41:47;37.70;55.70
9802;DHT22;4940;50.900;4.672;2022-07-29T10:44:20;37.60;55.80
9802;DHT22;4940;50.900;4.672;2022-07-29T10:46:48;37.50;56.00
9802;DHT22;4940;50.900;4.672;2022-07-29T10:49:16;37.60;56.70
9802;DHT22;4940;50.900;4.672;2022-07-29T10:52:14;37.70;56.10
9802;DHT22;4940;50.900;4.672;2022-07-29T10:54:44;37.80;56.30
9802;DHT22;4940;50.900;4.672;2022-07-29T10:57:19;38.00;56.10
9802;DHT22;4940;50.900;4.672;2022-07-29T10:59:48;38.00;55.00
9802;DHT22;4940;50.900;4.672;2022-07-29T11:02:41;38.00;55.40
9802;DHT22;4940;50.900;4.672;2022-07-29T11:05:10;38.10;55.50
9802;DHT22;4940;50.900;4.672;2022-07-29T11:07:39;37.90;55.50
9802;DHT22;4940;50.900;4.672;2022-07-29T11:10:23;38.00;55.30
9802;DHT22;4940;50.900;4.672;2022-07-29T11:12:52;38.00;55.40
9802;DHT22;4940;50.900;4.672;2022-07-29T11:15:20;37.80;54.70
9802;DHT22;4940;50.900;4.672;2022-07-29T11:18:07;37.90;55.00
9802;DHT22;4940;50.900;4.672;2022-07-29T11:20:37;37.50;55.00
9802;DHT22;4940;50.900;4.672;2022-07-29T11:23:23;37.60;55.60
9802;DHT22;4940;50.900;4.672;2022-07-29T11:26:15;37.60;55.60
9802;DHT22;4940;50.900;4.672;2022-07-29T11:28:57;37.60;55.90
9802;DHT22;4940;50.900;4.672;2022-07-29T11:31:35;37.60;54.60
9802;DHT22;4940;50.900;4.672;2022-07-29T11:34:21;37.30;55.00
9802;DHT22;4940;50.900;4.672;2022-07-29T11:37:17;37.00;53.90
9802;DHT22;4940;50.900;4.672;2022-07-29T11:39:45;37.00;54.20
9802;DHT22;4940;50.900;4.672;2022-07-29T11:42:47;36.70;55.10
9802;DHT22;4940;50.900;4.672;2022-07-29T11:45:20;36.60;54.40
9802;DHT22;4940;50.900;4.672;2022-07-29T11:47:50;36.40;54.70
9802;DHT22;4940;50.900;4.672;2022-07-29T11:50:30;36.30;55.00
9802;DHT22;4940;50.900;4.672;2022-07-29T11:52:58;36.40;55.00
9802;DHT22;4940;50.900;4.672;2022-07-29T11:55:26;36.50;54.70
9802;DHT22;4940;50.900;4.672;2022-07-29T11:57:55;36.60;55.30
9802;DHT22;4940;50.900;4.672;2022-07-29T12:00:27;36.60;55.50
9802;DHT22;4940;50.900;4.672;2022-07-29T12:02:55;36.30;54.50
9802;DHT22;4940;50.900;4.672;2022-07-29T12:05:32;36.30;54.80
9802;DHT22;4940;50.900;4.672;2022-07-29T12:08:12;36.10;54.50
9802;DHT22;4940;50.900;4.672;2022-07-29T12:10:40;36.00;54.50
9802;DHT22;4940;50.900;4.672;2022-07-29T12:13:08;36.10;54.70
9802;DHT22;4940;50.900;4.672;2022-07-29T12:15:37;35.90;54.30
9802;DHT22;4940;50.900;4.672;2022-07-29T12:18:15;35.90;54.90
9802;DHT22;4940;50.900;4.672;2022-07-29T12:20:42;35.90;54.90
9802;DHT22;4940;50.900;4.672;2022-07-29T12:23:10;35.80;55.40
9802;DHT22;4940;50.900;4.672;2022-07-29T12:25:39;35.70;55.20
9802;DHT22;4940;50.900;4.672;2022-07-29T12:28:08;35.70;55.50
9802;DHT22;4940;50.900;4.672;2022-07-29T12:30:43;35.30;55.10
9802;DHT22;4940;50.900;4.672;2022-07-29T12:33:12;35.00;55.10
9802;DHT22;4940;50.900;4.672;2022-07-29T12:35:40;34.50;55.20
9802;DHT22;4940;50.900;4.672;2022-07-29T12:38:10;33.80;55.60
9802;DHT22;4940;50.900;4.672;2022-07-29T12:40:38;33.70;56.40
9802;DHT22;4940;50.900;4.672;2022-07-29T12:43:06;33.60;57.00
9802;DHT22;4940;50.900;4.672;2022-07-29T12:45:35;33.70;57.00
9802;DHT22;4940;50.900;4.672;2022-07-29T12:48:04;33.90;56.70
9802;DHT22;4940;50.900;4.672;2022-07-29T12:50:34;34.00;56.90
9802;DHT22;4940;50.900;4.672;2022-07-29T12:53:12;34.00;56.90
9802;DHT22;4940;50.900;4.672;2022-07-29T12:55:40;33.90;56.30
9802;DHT22;4940;50.900;4.672;2022-07-29T12:58:08;33.80;56.30
9802;DHT22;4940;50.900;4.672;2022-07-29T13:00:35;33.60;57.50
9802;DHT22;4940;50.900;4.672;2022-07-29T13:03:04;33.60;57.40
9802;DHT22;4940;50.900;4.672;2022-07-29T13:05:39;33.60;57.30
9802;DHT22;4940;50.900;4.672;2022-07-29T13:08:14;33.60;58.00
9802;DHT22;4940;50.900;4.672;2022-07-29T13:10:42;33.80;57.80
9802;DHT22;4940;50.900;4.672;2022-07-29T13:13:10;33.90;57.10
9802;DHT22;4940;50.900;4.672;2022-07-29T13:15:38;34.00;56.40
9802;DHT22;4940;50.900;4.672;2022-07-29T13:18:28;34.00;56.70
9802;DHT22;4940;50.900;4.672;2022-07-29T13:20:56;33.70;56.00
9802;DHT22;4940;50.900;4.672;2022-07-29T13:23:23;33.50;55.80
9802;DHT22;4940;50.900;4.672;2022-07-29T13:25:51;33.40;55.80
9802;DHT22;4940;50.900;4.672;2022-07-29T13:28:18;33.30;55.80
9802;DHT22;4940;50.900;4.672;2022-07-29T13:30:47;33.30;56.60
9802;DHT22;4940;50.900;4.672;2022-07-29T13:33:14;33.40;56.90
9802;DHT22;4940;50.900;4.672;2022-07-29T13:35:43;33.40;57.20
9802;DHT22;4940;50.900;4.672;2022-07-29T13:38:10;33.30;56.50
9802;DHT22;4940;50.900;4.672;2022-07-29T13:40:37;33.20;56.80
9802;DHT22;4940;50.900;4.672;2022-07-29T13:43:04;33.10;57.20
9802;DHT22;4940;50.900;4.672;2022-07-29T13:45:32;32.80;57.00
9802;DHT22;4940;50.900;4.672;2022-07-29T13:47:59;32.80;57.20
9802;DHT22;4940;50.900;4.672;2022-07-29T13:50:26;32.50;57.20
9802;DHT22;4940;50.900;4.672;2022-07-29T13:52:55;32.60;57.90
9802;DHT22;4940;50.900;4.672;2022-07-29T13:55:22;32.50;57.70
9802;DHT22;4940;50.900;4.672;2022-07-29T13:57:49;32.60;58.50
9802;DHT22;4940;50.900;4.672;2022-07-29T14:00:17;32.60;57.90
9802;DHT22;4940;50.900;4.672;2022-07-29T14:02:45;32.60;58.30
9802;DHT22;4940;50.900;4.672;2022-07-29T14:05:12;32.00;57.80
9802;DHT22;4940;50.900;4.672;2022-07-29T14:07:39;32.50;57.80
9802;DHT22;4940;50.900;4.672;2022-07-29T14:10:08;32.50;58.30
9802;DHT22;4940;50.900;4.672;2022-07-29T14:12:36;32.40;58.70
9802;DHT22;4940;50.900;4.672;2022-07-29T14:15:04;32.50;58.50
9802;DHT22;4940;50.900;4.672;2022-07-29T14:17:31;32.60;58.50
9802;DHT22;4940;50.900;4.672;2022-07-29T14:19:58;32.60;58.60
9802;DHT22;4940;50.900;4.672;2022-07-29T14:22:26;32.50;58.20
9802;DHT22;4940;50.900;4.672;2022-07-29T14:24:53;32.40;57.70
9802;DHT22;4940;50.900;4.672;2022-07-29T14:27:22;32.20;58.00
9802;DHT22;4940;50.900;4.672;2022-07-29T14:29:49;32.30;57.50
9802;DHT22;4940;50.900;4.672;2022-07-29T14:32:16;32.30;58.00
9802;DHT22;4940;50.900;4.672;2022-07-29T14:34:44;32.30;58.10
9802;DHT22;4940;50.900;4.672;2022-07-29T14:37:11;32.20;57.70
9802;DHT22;4940;50.900;4.672;2022-07-29T14:39:38;32.10;57.80
9802;DHT22;4940;50.900;4.672;2022-07-29T14:42:06;32.20;58.00
9802;DHT22;4940;50.900;4.672;2022-07-29T14:44:35;32.10;58.00
9802;DHT22;4940;50.900;4.672;2022-07-29T14:47:02;32.00;58.60
9802;DHT22;4940;50.900;4.672;2022-07-29T14:49:29;32.00;58.70
9802;DHT22;4940;50.900;4.672;2022-07-29T14:51:57;31.80;58.80
9802;DHT22;4940;50.900;4.672;2022-07-29T14:54:24;31.80;58.70
9802;DHT22;4940;50.900;4.672;2022-07-29T14:56:51;31.70;58.60
9802;DHT22;4940;50.900;4.672;2022-07-29T14:59:22;31.60;59.10
9802;DHT22;4940;50.900;4.672;2022-07-29T15:01:50;31.60;59.20
9802;DHT22;4940;50.900;4.672;2022-07-29T15:04:18;31.60;59.30
9802;DHT22;4940;50.900;4.672;2022-07-29T15:06:45;31.70;59.40
9802;DHT22;4940;50.900;4.672;2022-07-29T15:09:12;35.20;62.50
9802;DHT22;4940;50.900;4.672;2022-07-29T15:11:39;31.80;59.30
9802;DHT22;4940;50.900;4.672;2022-07-29T15:14:06;31.90;59.60
9802;DHT22;4940;50.900;4.672;2022-07-29T15:16:35;31.90;58.60
9802;DHT22;4940;50.900;4.672;2022-07-29T15:19:04;32.00;58.30
9802;DHT22;4940;50.900;4.672;2022-07-29T15:21:32;31.80;58.40
9802;DHT22;4940;50.900;4.672;2022-07-29T15:23:59;31.90;58.10
9802;DHT22;4940;50.900;4.672;2022-07-29T15:26:27;31.80;58.10
9802;DHT22;4940;50.900;4.672;2022-07-29T15:28:54;31.70;58.00
9802;DHT22;4940;50.900;4.672;2022-07-29T15:31:22;31.60;57.70
9802;DHT22;4940;50.900;4.672;2022-07-29T15:33:49;31.60;57.90
9802;DHT22;4940;50.900;4.672;2022-07-29T15:36:18;31.60;57.50
9802;DHT22;4940;50.900;4.672;2022-07-29T15:41:14;31.40;57.60
9802;DHT22;4940;50.900;4.672;2022-07-29T15:43:43;31.40;58.00
9802;DHT22;4940;50.900;4.672;2022-07-29T15:46:13;30.90;57.60
9802;DHT22;4940;50.900;4.672;2022-07-29T15:48:58;30.80;58.20
9802;DHT22;4940;50.900;4.672;2022-07-29T15:51:26;30.70;58.40
9802;DHT22;4940;50.900;4.672;2022-07-29T15:53:54;30.70;58.80
9802;DHT22;4940;50.900;4.672;2022-07-29T15:56:21;30.60;58.20
9802;DHT22;4940;50.900;4.672;2022-07-29T15:58:49;30.60;58.50
9802;DHT22;4940;50.900;4.672;2022-07-29T16:01:17;30.50;58.40
9802;DHT22;4940;50.900;4.672;2022-07-29T16:03:44;30.50;58.90
9802;DHT22;4940;50.900;4.672;2022-07-29T16:06:11;30.40;59.20
9802;DHT22;4940;50.900;4.672;2022-07-29T16:08:40;30.30;59.50
9802;DHT22;4940;50.900;4.672;2022-07-29T16:11:07;30.20;59.50
9802;DHT22;4940;50.900;4.672;2022-07-29T16:13:35;30.20;59.00
9802;DHT22;4940;50.900;4.672;2022-07-29T16:16:02;30.20;59.30
9802;DHT22;4940;50.900;4.672;2022-07-29T16:18:30;30.20;59.10
9802;DHT22;4940;50.900;4.672;2022-07-29T16:20:57;30.10;58.80
9802;DHT22;4940;50.900;4.672;2022-07-29T16:23:24;30.10;59.20
9802;DHT22;4940;50.900;4.672;2022-07-29T16:25:53;30.00;58.80
9802;DHT22;4940;50.900;4.672;2022-07-29T16:28:20;29.90;58.60
9802;DHT22;4940;50.900;4.672;2022-07-29T16:30:47;29.90;58.80